sensor_id;sensor_type;location;lat;lon;timestamp;temperature;humidity
5870;DHT22;2961;47.702;9.410;2023-07-20T00:02:05;18.60;99.90
5870;DHT22;2961;47.702;9.410;2023-07-20T00:04:33;18.60;99.90
5870;DHT22;2961;47.702;9.410;2023-07-20T00:07:00;18.50;99.90
5870;DHT22;2961;47.702;9.410;2023-07-20T00:09:27;18.50;99.90
5870;DHT22;2961;47.702;9.410;2023-07-20T00:11:54;18.50;99.90
5870;DHT22;2961;47.702;9.410;2023-07-20T00:14:21;18.30;99.90
5870;DHT22;2961;47.702;9.410;2023-07-20T00:16:49;18.30;99.90
5870;DHT22;2961;47.702;9.410;2023-07-20T00:19:22;18.20;99.90
5870;DHT22;2961;47.702;9.410;2023-07-20T00:21:49;18.10;99.90
5870;DHT22;2961;47.702;9.410;2023-07-20T00:24:16;18.20;99.90
5870;DHT22;2961;47.702;9.410;2023-07-20T00:26:42;18.10;99.90
5870;DHT22;2961;47.702;9.410;2023-07-20T00:29:09;18.10;99.90
5870;DHT22;2961;47.702;9.410;2023-07-20T00:31:36;18.20;99.90
5870;DHT22;2961;47.702;9.410;2023-07-20T00:34:03;18.20;99.90
5870;DHT22;2961;47.702;9.410;2023-07-20T00:36:31;18.20;99.90
5870;DHT22;2961;47.702;9.410;2023-07-20T00:38:58;18.20;99.90
5870;DHT22;2961;47.702;9.410;2023-07-20T00:41:25;18.20;99.90
5870;DHT22;2961;47.702;9.410;2023-07-20T00:43:54;18.20;99.90
5870;DHT22;2961;47.702;9.410;2023-07-20T00:46:23;18.30;99.90
5870;DHT22;2961;47.702;9.410;2023-07-20T00:48:51;18.40;99.90
5870;DHT22;2961;47.702;9.410;2023-07-20T00:51:19;18.50;99.90
5870;DHT22;2961;47.702;9.410;2023-07-20T00:53:48;18.60;99.90
5870;DHT22;2961;47.702;9.410;2023-07-20T00:56:15;18.70;99.90
5870;DHT22;2961;47.702;9.410;2023-07-20T00:58:42;18.70;99.90
5870;DHT22;2961;47.702;9.410;2023-07-20T01:01:09;18.70;99.90
5870;DHT22;2961;47.702;9.410;2023-07-20T01:03:36;18.80;99.90
5870;DHT22;2961;47.702;9.410;2023-07-20T01:06:10;18.80;99.90
5870;DHT22;2961;47.702;9.410;2023-07-20T01:08:43;18.80;99.90
5870;DHT22;2961;47.702;9.410;2023-07-20T01:11:16;18.80;99.90
5870;DHT22;2961;47.702;9.410;2023-07-20T01:13:44;18.90;99.90
5870;DHT22;2961;47.702;9.410;2023-07-20T01:16:11;18.90;99.90
5870;DHT22;2961;47.702;9.410;2023-07-20T01:18:38;18.90;99.90
5870;DHT22;2961;47.702;9.410;2023-07-20T01:21:09;18.80;99.90
5870;DHT22;2961;47.702;9.410;2023-07-20T01:23:57;18.90;99.90
5870;DHT22;2961;47.702;9.410;2023-07-20T01:26:43;18.80;99.90
5870;DHT22;2961;47.702;9.410;2023-07-20T01:29:42;18.80;99.90
5870;DHT22;2961;47.702;9.410;2023-07-20T01:32:17;18.80;99.90
5870;DHT22;2961;47.702;9.410;2023-07-20T01:34:47;18.80;99.90
5870;DHT22;2961;47.702;9.410;2023-07-20T01:37:16;18.80;99.90
5870;DHT22;2961;47.702;9.410;2023-07-20T01:39:45;18.70;99.90
5870;DHT22;2961;47.702;9.410;2023-07-20T01:42:12;18.60;99.90
5870;DHT22;2961;47.702;9.410;2023-07-20T01:44:39;18.70;99.90
5870;DHT22;2961;47.702;9.410;2023-07-20T01:47:06;18.70;99.90
5870;DHT22;2961;47.702;9.410;2023-07-20T01:49:34;18.70;99.90
5870;DHT22;2961;47.702;9.410;2023-07-20T01:52:01;18.70;99.90
5870;DHT22;2961;47.702;9.410;2023-07-20T01:54:28;18.70;99.90
5870;DHT22;2961;47.702;9.410;2023-07-20T01:56:55;18.70;99.90
5870;DHT22;2961;47.702;9.410;2023-07-20T01:59:21;18.70;99.90
5870;DHT22;2961;47.702;9.410;2023-07-20T02:01:48;18.80;99.90
5870;DHT22;2961;47.702;9.410;2023-07-20T02:04:15;18.80;99.90
5870;DHT22;2961;47.702;9.410;2023-07-20T02:06:43;18.90;99.90
5870;DHT22;2961;47.702;9.410;2023-07-20T02:09:10;19.00;99.90
5870;DHT22;2961;47.702;9.410;2023-07-20T02:11:36;19.10;99.90
5870;DHT22;2961;47.702;9.410;2023-07-20T02:14:03;19.10;99.90
5870;DHT22;2961;47.702;9.410;2023-07-20T02:16:30;19.20;99.90
5870;DHT22;2961;47.702;9.410;2023-07-20T02:18:57;19.20;99.90
5870;DHT22;2961;47.702;9.410;2023-07-20T02:21:24;19.20;99.90
5870;DHT22;2961;47.702;9.410;2023-07-20T02:23:52;19.30;99.90
5870;DHT22;2961;47.702;9.410;2023-07-20T02:26:19;19.30;99.90
5870;DHT22;2961;47.702;9.410;2023-07-20T02:28:45;19.30;99.90
5870;DHT22;2961;47.702;9.410;2023-07-20T02:31:12;19.30;99.90
5870;DHT22;2961;47.702;9.410;2023-07-20T02:33:39;19.20;99.90
5870;DHT22;2961;47.702;9.410;2023-07-20T02:36:06;19.20;99.90
5870;DHT22;2961;47.702;9.410;2023-07-20T02:38:33;19.10;99.90
5870;DHT22;2961;47.702;9.410;2023-07-20T02:41:01;19.10;99.90
5870;DHT22;2961;47.702;9.410;2023-07-20T02:43:28;19.10;99.90
5870;DHT22;2961;47.702;9.410;2023-07-20T02:45:55;19.00;99.90
5870;DHT22;2961;47.702;9.410;2023-07-20T02:48:21;18.90;99.90
5870;DHT22;2961;47.702;9.410;2023-07-20T02:50:48;18.80;99.90
5870;DHT22;2961;47.702;9.410;2023-07-20T02:53:15;18.60;99.90
5870;DHT22;2961;47.702;9.410;2023-07-20T02:55:42;18.50;99.90
5870;DHT22;2961;47.702;9.410;2023-07-20T02:58:10;18.50;99.90
5870;DHT22;2961;47.702;9.410;2023-07-20T03:00:36;18.40;99.90
5870;DHT22;2961;47.702;9.410;2023-07-20T03:03:03;18.50;99.90
5870;DHT22;2961;47.702;9.410;2023-07-20T03:05:34;18.50;99.90
5870;DHT22;2961;47.702;9.410;2023-07-20T03:08:03;18.50;99.90
5870;DHT22;2961;47.702;9.410;2023-07-20T03:10:31;18.60;99.90
5870;DHT22;2961;47.702;9.410;2023-07-20T03:12:58;18.60;99.90
5870;DHT22;2961;47.702;9.410;2023-07-20T03:15:26;18.60;99.90
5870;DHT22;2961;47.702;9.410;2023-07-20T03:17:54;18.70;99.90
5870;DHT22;2961;47.702;9.410;2023-07-20T03:20:21;18.70;99.90
5870;DHT22;2961;47.702;9.410;2023-07-20T03:22:48;18.70;99.90
5870;DHT22;2961;47.702;9.410;2023-07-20T03:25:15;18.60;99.90
5870;DHT22;2961;47.702;9.410;2023-07-20T03:27:43;18.50;99.90
5870;DHT22;2961;47.702;9.410;2023-07-20T03:30:10;18.40;99.90
5870;DHT22;2961;47.702;9.410;2023-07-20T03:32:38;18.40;99.90
5870;DHT22;2961;47.702;9.410;2023-07-20T03:35:06;18.30;99.90
5870;DHT22;2961;47.702;9.410;2023-07-20T03:37:33;18.30;99.90
5870;DHT22;2961;47.702;9.410;2023-07-20T03:40:02;18.30;99.90
5870;DHT22;2961;47.702;9.410;2023-07-20T03:42:30;18.30;99.90
5870;DHT22;2961;47.702;9.410;2023-07-20T03:44:56;18.40;99.90
5870;DHT22;2961;47.702;9.410;2023-07-20T03:47:23;18.40;99.90
5870;DHT22;2961;47.702;9.410;2023-07-20T03:49:52;18.30;99.90
5870;DHT22;2961;47.702;9.410;2023-07-20T03:52:19;18.30;99.90
5870;DHT22;2961;47.702;9.410;2023-07-20T03:54:45;18.20;99.90
5870;DHT22;2961;47.702;9.410;2023-07-20T03:57:12;18.20;99.90
5870;DHT22;2961;47.702;9.410;2023-07-20T03:59:39;18.10;99.90
5870;DHT22;2961;47.702;9.410;2023-07-20T04:02:06;18.10;99.90
5870;DHT22;2961;47.702;9.410;2023-07-20T04:04:33;18.10;99.90
5870;DHT22;2961;47.702;9.410;2023-07-20T04:07:01;18.00;99.90
5870;DHT22;2961;47.702;9.410;2023-07-20T04:09:27;18.00;99.90
5870;DHT22;2961;47.702;9.410;2023-07-20T04:11:54;18.00;99.90
5870;DHT22;2961;47.702;9.410;2023-07-20T04:14:21;18.10;99.90
5870;DHT22;2961;47.702;9.410;2023-07-20T04:16:48;18.20;99.90
5870;DHT22;2961;47.702;9.410;2023-07-20T04:19:16;18.20;99.90
5870;DHT22;2961;47.702;9.410;2023-07-20T04:21:43;18.30;99.90
5870;DHT22;2961;47.702;9.410;2023-07-20T04:24:11;18.30;99.90
5870;DHT22;2961;47.702;9.410;2023-07-20T04:26:38;18.30;99.90
5870;DHT22;2961;47.702;9.410;2023-07-20T04:29:05;18.30;99.90
5870;DHT22;2961;47.702;9.410;2023-07-20T04:31:32;18.30;99.90
5870;DHT22;2961;47.702;9.410;2023-07-20T04:33:59;18.30;99.90
5870;DHT22;2961;47.702;9.410;2023-07-20T04:36:26;18.40;99.90
5870;DHT22;2961;47.702;9.410;2023-07-20T04:38:53;18.50;99.90
5870;DHT22;2961;47.702;9.410;2023-07-20T04:41:21;18.50;99.90
5870;DHT22;2961;47.702;9.410;2023-07-20T04:43:48;18.60;99.90
5870;DHT22;2961;47.702;9.410;2023-07-20T04:46:15;18.60;99.90
5870;DHT22;2961;47.702;9.410;2023-07-20T04:48:43;18.80;99.90
5870;DHT22;2961;47.702;9.410;2023-07-20T04:51:09;18.70;99.90
5870;DHT22;2961;47.702;9.410;2023-07-20T04:53:37;18.70;99.90
5870;DHT22;2961;47.702;9.410;2023-07-20T04:56:04;18.70;99.90
5870;DHT22;2961;47.702;9.410;2023-07-20T04:58:32;18.80;99.90
5870;DHT22;2961;47.702;9.410;2023-07-20T05:00:59;18.80;99.90
5870;DHT22;2961;47.702;9.410;2023-07-20T05:03:25;18.90;99.90
5870;DHT22;2961;47.702;9.410;2023-07-20T05:05:53;18.90;99.90
5870;DHT22;2961;47.702;9.410;2023-07-20T05:08:20;19.00;99.90
5870;DHT22;2961;47.702;9.410;2023-07-20T05:10:48;19.10;99.90
5870;DHT22;2961;47.702;9.410;2023-07-20T05:13:15;19.10;99.90
5870;DHT22;2961;47.702;9.410;2023-07-20T05:15:43;19.10;99.90
5870;DHT22;2961;47.702;9.410;2023-07-20T05:18:10;19.10;99.90
5870;DHT22;2961;47.702;9.410;2023-07-20T05:20:37;19.20;99.90
5870;DHT22;2961;47.702;9.410;2023-07-20T05:23:04;19.20;99.90
5870;DHT22;2961;47.702;9.410;2023-07-20T05:25:31;19.40;99.90
5870;DHT22;2961;47.702;9.410;2023-07-20T05:27:58;19.50;99.90
5870;DHT22;2961;47.702;9.410;2023-07-20T05:30:25;19.50;99.90
5870;DHT22;2961;47.702;9.410;2023-07-20T05:32:53;19.60;99.90
5870;DHT22;2961;47.702;9.410;2023-07-20T05:35:20;19.60;99.90
5870;DHT22;2961;47.702;9.410;2023-07-20T05:37:48;19.60;99.90
5870;DHT22;2961;47.702;9.410;2023-07-20T05:40:15;19.70;99.90
5870;DHT22;2961;47.702;9.410;2023-07-20T05:42:44;19.70;99.90
5870;DHT22;2961;47.702;9.410;2023-07-20T05:45:12;19.80;99.90
5870;DHT22;2961;47.702;9.410;2023-07-20T05:47:39;19.90;99.90
5870;DHT22;2961;47.702;9.410;2023-07-20T05:50:08;20.30;99.90
5870;DHT22;2961;47.702;9.410;2023-07-20T05:52:35;20.80;99.90
5870;DHT22;2961;47.702;9.410;2023-07-20T05:55:05;21.70;99.90
5870;DHT22;2961;47.702;9.410;2023-07-20T05:57:32;22.20;99.90
5870;DHT22;2961;47.702;9.410;2023-07-20T05:59:58;22.60;99.90
5870;DHT22;2961;47.702;9.410;2023-07-20T06:02:25;23.10;99.90
5870;DHT22;2961;47.702;9.410;2023-07-20T06:04:52;23.60;99.90
5870;DHT22;2961;47.702;9.410;2023-07-20T06:07:21;23.80;99.90
5870;DHT22;2961;47.702;9.410;2023-07-20T06:09:48;23.90;99.90
5870;DHT22;2961;47.702;9.410;2023-07-20T06:12:15;23.70;99.30
5870;DHT22;2961;47.702;9.410;2023-07-20T06:14:42;23.30;99.60
5870;DHT22;2961;47.702;9.410;2023-07-20T06:17:09;22.80;99.90
5870;DHT22;2961;47.702;9.410;2023-07-20T06:19:35;22.40;99.90
5870;DHT22;2961;47.702;9.410;2023-07-20T06:22:03;22.00;99.90
5870;DHT22;2961;47.702;9.410;2023-07-20T06:24:31;21.80;99.90
5870;DHT22;2961;47.702;9.410;2023-07-20T06:26:58;21.80;99.90
5870;DHT22;2961;47.702;9.410;2023-07-20T06:29:24;21.80;99.90
5870;DHT22;2961;47.702;9.410;2023-07-20T06:31:51;22.00;99.90
5870;DHT22;2961;47.702;9.410;2023-07-20T06:34:18;22.00;99.90
5870;DHT22;2961;47.702;9.410;2023-07-20T06:36:45;22.10;99.90
5870;DHT22;2961;47.702;9.410;2023-07-20T06:39:11;22.20;99.90
5870;DHT22;2961;47.702;9.410;2023-07-20T06:41:41;22.20;99.90
5870;DHT22;2961;47.702;9.410;2023-07-20T06:44:07;22.10;99.90
5870;DHT22;2961;47.702;9.410;2023-07-20T06:46:34;22.10;99.90
5870;DHT22;2961;47.702;9.410;2023-07-20T06:49:01;22.10;99.90
5870;DHT22;2961;47.702;9.410;2023-07-20T06:51:28;22.20;99.90
5870;DHT22;2961;47.702;9.410;2023-07-20T06:53:55;22.20;99.90
5870;DHT22;2961;47.702;9.410;2023-07-20T06:56:22;22.50;99.90
5870;DHT22;2961;47.702;9.410;2023-07-20T06:58:50;22.50;99.90
5870;DHT22;2961;47.702;9.410;2023-07-20T07:01:17;23.10;99.90
5870;DHT22;2961;47.702;9.410;2023-07-20T07:03:44;24.70;98.70
5870;DHT22;2961;47.702;9.410;2023-07-20T07:06:10;25.40;95.50
5870;DHT22;2961;47.702;9.410;2023-07-20T07:08:37;25.60;96.00
5870;DHT22;2961;47.702;9.410;2023-07-20T07:11:04;25.30;95.30
5870;DHT22;2961;47.702;9.410;2023-07-20T07:13:31;24.90;94.00
5870;DHT22;2961;47.702;9.410;2023-07-20T07:15:59;24.50;94.50
5870;DHT22;2961;47.702;9.410;2023-07-20T07:18:26;24.20;96.00
5870;DHT22;2961;47.702;9.410;2023-07-20T07:20:53;23.90;96.10
5870;DHT22;2961;47.702;9.410;2023-07-20T07:23:20;23.90;94.70
5870;DHT22;2961;47.702;9.410;2023-07-20T07:25:47;24.70;95.30
5870;DHT22;2961;47.702;9.410;2023-07-20T07:28:13;25.70;92.10
5870;DHT22;2961;47.702;9.410;2023-07-20T07:30:40;26.20;91.50
5870;DHT22;2961;47.702;9.410;2023-07-20T07:33:09;26.10;91.70
5870;DHT22;2961;47.702;9.410;2023-07-20T07:35:36;26.00;91.20
5870;DHT22;2961;47.702;9.410;2023-07-20T07:38:03;26.10;88.60
5870;DHT22;2961;47.702;9.410;2023-07-20T07:40:30;27.10;86.50
5870;DHT22;2961;47.702;9.410;2023-07-20T07:42:57;27.90;82.10
5870;DHT22;2961;47.702;9.410;2023-07-20T07:45:24;28.10;81.80
5870;DHT22;2961;47.702;9.410;2023-07-20T07:47:51;28.20;79.30
5870;DHT22;2961;47.702;9.410;2023-07-20T07:50:19;27.90;79.90
5870;DHT22;2961;47.702;9.410;2023-07-20T07:52:46;27.90;81.90
5870;DHT22;2961;47.702;9.410;2023-07-20T07:55:13;27.90;77.20
5870;DHT22;2961;47.702;9.410;2023-07-20T07:57:42;27.70;78.40
5870;DHT22;2961;47.702;9.410;2023-07-20T08:00:09;27.50;79.80
5870;DHT22;2961;47.702;9.410;2023-07-20T08:02:40;27.30;78.60
5870;DHT22;2961;47.702;9.410;2023-07-20T08:05:07;27.40;78.50
5870;DHT22;2961;47.702;9.410;2023-07-20T08:07:35;27.30;77.90
5870;DHT22;2961;47.702;9.410;2023-07-20T08:10:02;27.60;77.70
5870;DHT22;2961;47.702;9.410;2023-07-20T08:12:29;28.90;78.60
5870;DHT22;2961;47.702;9.410;2023-07-20T08:14:56;29.70;71.40
5870;DHT22;2961;47.702;9.410;2023-07-20T08:17:23;30.00;69.50
5870;DHT22;2961;47.702;9.410;2023-07-20T08:19:49;30.70;66.10
5870;DHT22;2961;47.702;9.410;2023-07-20T08:22:16;31.00;66.50
5870;DHT22;2961;47.702;9.410;2023-07-20T08:24:44;31.30;64.60
5870;DHT22;2961;47.702;9.410;2023-07-20T08:27:11;31.80;60.80
5870;DHT22;2961;47.702;9.410;2023-07-20T08:29:38;32.00;60.80
5870;DHT22;2961;47.702;9.410;2023-07-20T08:32:06;32.50;59.20
5870;DHT22;2961;47.702;9.410;2023-07-20T08:34:33;32.80;58.10
5870;DHT22;2961;47.702;9.410;2023-07-20T08:36:59;32.80;59.00
5870;DHT22;2961;47.702;9.410;2023-07-20T08:39:26;33.40;57.80
5870;DHT22;2961;47.702;9.410;2023-07-20T08:41:55;33.50;52.50
5870;DHT22;2961;47.702;9.410;2023-07-20T08:44:24;33.00;53.60
5870;DHT22;2961;47.702;9.410;2023-07-20T08:46:52;32.80;53.60
5870;DHT22;2961;47.702;9.410;2023-07-20T08:49:19;32.60;53.40
5870;DHT22;2961;47.702;9.410;2023-07-20T08:51:46;32.40;54.10
5870;DHT22;2961;47.702;9.410;2023-07-20T08:54:15;32.00;53.50
5870;DHT22;2961;47.702;9.410;2023-07-20T08:56:45;32.20;55.80
5870;DHT22;2961;47.702;9.410;2023-07-20T08:59:16;32.20;52.30
5870;DHT22;2961;47.702;9.410;2023-07-20T09:01:44;31.90;55.20
5870;DHT22;2961;47.702;9.410;2023-07-20T09:04:11;32.10;55.10
5870;DHT22;2961;47.702;9.410;2023-07-20T09:06:38;31.80;52.00
5870;DHT22;2961;47.702;9.410;2023-07-20T09:09:04;31.50;53.70
5870;DHT22;2961;47.702;9.410;2023-07-20T09:11:31;31.60;54.50
5870;DHT22;2961;47.702;9.410;2023-07-20T09:14:05;32.00;53.40
5870;DHT22;2961;47.702;9.410;2023-07-20T09:16:47;32.70;53.10
5870;DHT22;2961;47.702;9.410;2023-07-20T09:19:15;32.70;54.00
5870;DHT22;2961;47.702;9.410;2023-07-20T09:21:44;32.40;52.90
5870;DHT22;2961;47.702;9.410;2023-07-20T09:24:12;32.40;54.40
5870;DHT22;2961;47.702;9.410;2023-07-20T09:26:41;32.30;54.40
5870;DHT22;2961;47.702;9.410;2023-07-20T09:29:08;32.50;54.30
5870;DHT22;2961;47.702;9.410;2023-07-20T09:31:37;32.70;53.20
5870;DHT22;2961;47.702;9.410;2023-07-20T09:34:04;32.70;52.50
5870;DHT22;2961;47.702;9.410;2023-07-20T09:36:33;33.40;52.10
5870;DHT22;2961;47.702;9.410;2023-07-20T09:39:02;34.30;49.80
5870;DHT22;2961;47.702;9.410;2023-07-20T09:41:29;34.30;49.00
5870;DHT22;2961;47.702;9.410;2023-07-20T09:43:56;33.30;53.30
5870;DHT22;2961;47.702;9.410;2023-07-20T09:46:23;33.00;52.30
5870;DHT22;2961;47.702;9.410;2023-07-20T09:48:54;32.60;52.90
5870;DHT22;2961;47.702;9.410;2023-07-20T09:51:22;32.60;53.50
5870;DHT22;2961;47.702;9.410;2023-07-20T09:53:49;32.60;53.10
5870;DHT22;2961;47.702;9.410;2023-07-20T09:56:21;32.90;52.00
5870;DHT22;2961;47.702;9.410;2023-07-20T09:58:49;33.20;53.30
5870;DHT22;2961;47.702;9.410;2023-07-20T10:01:20;33.10;53.20
5870;DHT22;2961;47.702;9.410;2023-07-20T10:03:47;33.10;53.50
5870;DHT22;2961;47.702;9.410;2023-07-20T10:06:23;32.80;53.70
5870;DHT22;2961;47.702;9.410;2023-07-20T10:08:52;32.20;53.30
5870;DHT22;2961;47.702;9.410;2023-07-20T10:11:21;31.50;53.50
5870;DHT22;2961;47.702;9.410;2023-07-20T10:13:51;31.30;55.80
5870;DHT22;2961;47.702;9.410;2023-07-20T10:16:24;30.70;56.10
5870;DHT22;2961;47.702;9.410;2023-07-20T10:18:59;29.70;57.50
5870;DHT22;2961;47.702;9.410;2023-07-20T10:21:29;29.40;59.40
5870;DHT22;2961;47.702;9.410;2023-07-20T10:23:57;28.60;61.70
5870;DHT22;2961;47.702;9.410;2023-07-20T10:26:24;28.40;62.40
5870;DHT22;2961;47.702;9.410;2023-07-20T10:28:52;28.20;65.00
5870;DHT22;2961;47.702;9.410;2023-07-20T10:31:19;28.10;63.40
5870;DHT22;2961;47.702;9.410;2023-07-20T10:33:47;28.30;64.40
5870;DHT22;2961;47.702;9.410;2023-07-20T10:36:16;28.30;63.70
5870;DHT22;2961;47.702;9.410;2023-07-20T10:38:52;28.30;64.40
5870;DHT22;2961;47.702;9.410;2023-07-20T10:41:21;28.20;65.50
5870;DHT22;2961;47.702;9.410;2023-07-20T10:43:50;28.00;64.20
5870;DHT22;2961;47.702;9.410;2023-07-20T10:46:34;28.10;67.70
5870;DHT22;2961;47.702;9.410;2023-07-20T10:49:02;28.30;64.80
5870;DHT22;2961;47.702;9.410;2023-07-20T10:51:29;28.30;65.40
5870;DHT22;2961;47.702;9.410;2023-07-20T10:53:58;28.10;63.10
5870;DHT22;2961;47.702;9.410;2023-07-20T10:56:27;28.00;63.90
5870;DHT22;2961;47.702;9.410;2023-07-20T10:58:57;27.80;64.10
5870;DHT22;2961;47.702;9.410;2023-07-20T11:01:28;27.70;64.50
5870;DHT22;2961;47.702;9.410;2023-07-20T11:03:58;27.50;65.00
5870;DHT22;2961;47.702;9.410;2023-07-20T11:06:33;27.40;65.40
5870;DHT22;2961;47.702;9.410;2023-07-20T11:09:06;27.20;67.50
5870;DHT22;2961;47.702;9.410;2023-07-20T11:11:37;26.80;66.30
5870;DHT22;2961;47.702;9.410;2023-07-20T11:14:05;26.80;69.50
5870;DHT22;2961;47.702;9.410;2023-07-20T11:16:34;26.90;69.80
5870;DHT22;2961;47.702;9.410;2023-07-20T11:19:01;27.00;67.90
5870;DHT22;2961;47.702;9.410;2023-07-20T11:21:28;27.20;67.20
5870;DHT22;2961;47.702;9.410;2023-07-20T11:23:55;27.20;65.00
5870;DHT22;2961;47.702;9.410;2023-07-20T11:26:24;27.10;70.10
5870;DHT22;2961;47.702;9.410;2023-07-20T11:28:50;27.00;68.80
5870;DHT22;2961;47.702;9.410;2023-07-20T11:31:17;27.00;66.40
5870;DHT22;2961;47.702;9.410;2023-07-20T11:33:44;27.00;67.50
5870;DHT22;2961;47.702;9.410;2023-07-20T11:36:12;27.00;67.90
5870;DHT22;2961;47.702;9.410;2023-07-20T11:38:41;26.80;68.60
5870;DHT22;2961;47.702;9.410;2023-07-20T11:41:08;26.60;66.50
5870;DHT22;2961;47.702;9.410;2023-07-20T11:43:37;26.50;67.20
5870;DHT22;2961;47.702;9.410;2023-07-20T11:46:05;26.50;68.60
5870;DHT22;2961;47.702;9.410;2023-07-20T11:48:31;26.40;67.10
5870;DHT22;2961;47.702;9.410;2023-07-20T11:50:58;26.30;68.00
5870;DHT22;2961;47.702;9.410;2023-07-20T11:53:25;26.30;68.50
5870;DHT22;2961;47.702;9.410;2023-07-20T11:55:52;26.40;67.80
5870;DHT22;2961;47.702;9.410;2023-07-20T11:58:20;26.30;67.80
5870;DHT22;2961;47.702;9.410;2023-07-20T12:00:48;26.20;69.70
5870;DHT22;2961;47.702;9.410;2023-07-20T12:03:15;26.30;71.00
5870;DHT22;2961;47.702;9.410;2023-07-20T12:05:42;26.40;68.10
5870;DHT22;2961;47.702;9.410;2023-07-20T12:08:09;26.50;66.70
5870;DHT22;2961;47.702;9.410;2023-07-20T12:10:39;26.60;67.90
5870;DHT22;2961;47.702;9.410;2023-07-20T12:13:10;26.60;65.60
5870;DHT22;2961;47.702;9.410;2023-07-20T12:15:37;26.40;68.50
5870;DHT22;2961;47.702;9.410;2023-07-20T12:18:06;26.50;70.80
5870;DHT22;2961;47.702;9.410;2023-07-20T12:20:34;26.80;69.30
5870;DHT22;2961;47.702;9.410;2023-07-20T12:23:02;27.00;68.40
5870;DHT22;2961;47.702;9.410;2023-07-20T12:25:36;27.00;67.70
5870;DHT22;2961;47.702;9.410;2023-07-20T12:28:04;27.10;65.30
5870;DHT22;2961;47.702;9.410;2023-07-20T12:30:31;27.20;63.90
5870;DHT22;2961;47.702;9.410;2023-07-20T12:32:58;27.20;64.50
5870;DHT22;2961;47.702;9.410;2023-07-20T12:35:26;27.30;64.30
5870;DHT22;2961;47.702;9.410;2023-07-20T12:37:53;27.40;64.30
5870;DHT22;2961;47.702;9.410;2023-07-20T12:40:20;27.40;62.40
5870;DHT22;2961;47.702;9.410;2023-07-20T12:42:47;27.30;64.20
5870;DHT22;2961;47.702;9.410;2023-07-20T12:45:14;27.50;63.40
5870;DHT22;2961;47.702;9.410;2023-07-20T12:47:41;27.50;64.40
5870;DHT22;2961;47.702;9.410;2023-07-20T12:50:09;27.50;65.50
5870;DHT22;2961;47.702;9.410;2023-07-20T12:52:38;27.50;62.40
5870;DHT22;2961;47.702;9.410;2023-07-20T12:55:06;27.60;61.80
5870;DHT22;2961;47.702;9.410;2023-07-20T12:57:34;27.70;66.30
5870;DHT22;2961;47.702;9.410;2023-07-20T13:00:01;27.80;63.00
5870;DHT22;2961;47.702;9.410;2023-07-20T13:02:29;27.90;60.00
5870;DHT22;2961;47.702;9.410;2023-07-20T13:04:56;27.90;61.20
5870;DHT22;2961;47.702;9.410;2023-07-20T13:07:29;27.90;59.80
5870;DHT22;2961;47.702;9.410;2023-07-20T13:09:58;27.70;59.50
5870;DHT22;2961;47.702;9.410;2023-07-20T13:12:26;27.70;59.20
5870;DHT22;2961;47.702;9.410;2023-07-20T13:14:53;27.60;67.60
5870;DHT22;2961;47.702;9.410;2023-07-20T13:17:20;27.70;62.90
5870;DHT22;2961;47.702;9.410;2023-07-20T13:19:47;27.50;60.40
5870;DHT22;2961;47.702;9.410;2023-07-20T13:22:14;27.50;59.70
5870;DHT22;2961;47.702;9.410;2023-07-20T13:24:41;27.40;59.80
5870;DHT22;2961;47.702;9.410;2023-07-20T13:27:09;27.60;61.30
5870;DHT22;2961;47.702;9.410;2023-07-20T13:29:36;27.70;61.50
5870;DHT22;2961;47.702;9.410;2023-07-20T13:32:03;27.90;64.20
5870;DHT22;2961;47.702;9.410;2023-07-20T13:34:30;28.00;61.30
5870;DHT22;2961;47.702;9.410;2023-07-20T13:36:57;28.10;60.80
5870;DHT22;2961;47.702;9.410;2023-07-20T13:39:24;28.20;63.60
5870;DHT22;2961;47.702;9.410;2023-07-20T13:41:52;28.00;59.10
5870;DHT22;2961;47.702;9.410;2023-07-20T13:44:21;28.00;62.00
5870;DHT22;2961;47.702;9.410;2023-07-20T13:46:48;28.00;60.30
5870;DHT22;2961;47.702;9.410;2023-07-20T13:49:15;27.90;61.00
5870;DHT22;2961;47.702;9.410;2023-07-20T13:51:42;27.80;61.00
5870;DHT22;2961;47.702;9.410;2023-07-20T13:54:09;27.90;60.30
5870;DHT22;2961;47.702;9.410;2023-07-20T13:56:37;27.90;60.40
5870;DHT22;2961;47.702;9.410;2023-07-20T13:59:04;28.00;59.90
5870;DHT22;2961;47.702;9.410;2023-07-20T14:01:32;28.00;60.20
5870;DHT22;2961;47.702;9.410;2023-07-20T14:04:00;28.10;60.20
5870;DHT22;2961;47.702;9.410;2023-07-20T14:06:31;28.00;59.30
5870;DHT22;2961;47.702;9.410;2023-07-20T14:08:59;28.00;62.10
5870;DHT22;2961;47.702;9.410;2023-07-20T14:11:26;28.00;59.50
5870;DHT22;2961;47.702;9.410;2023-07-20T14:13:53;28.00;61.00
5870;DHT22;2961;47.702;9.410;2023-07-20T14:16:21;28.00;62.60
5870;DHT22;2961;47.702;9.410;2023-07-20T14:18:49;28.00;60.70
5870;DHT22;2961;47.702;9.410;2023-07-20T14:21:16;28.00;61.20
5870;DHT22;2961;47.702;9.410;2023-07-20T14:23:45;27.80;59.80
5870;DHT22;2961;47.702;9.410;2023-07-20T14:26:12;27.90;59.70
5870;DHT22;2961;47.702;9.410;2023-07-20T14:28:42;27.70;57.80
5870;DHT22;2961;47.702;9.410;2023-07-20T14:31:09;27.70;62.60
5870;DHT22;2961;47.702;9.410;2023-07-20T14:33:35;27.70;59.70
5870;DHT22;2961;47.702;9.410;2023-07-20T14:36:04;27.80;59.10
5870;DHT22;2961;47.702;9.410;2023-07-20T14:38:34;27.70;59.50
5870;DHT22;2961;47.702;9.410;2023-07-20T14:41:01;27.80;60.40
5870;DHT22;2961;47.702;9.410;2023-07-20T14:43:28;27.80;58.70
5870;DHT22;2961;47.702;9.410;2023-07-20T14:45:56;27.80;61.50
5870;DHT22;2961;47.702;9.410;2023-07-20T14:48:25;27.90;60.20
5870;DHT22;2961;47.702;9.410;2023-07-20T14:50:52;27.90;58.70
5870;DHT22;2961;47.702;9.410;2023-07-20T14:53:20;28.00;60.00
5870;DHT22;2961;47.702;9.410;2023-07-20T14:55:47;28.00;59.80
5870;DHT22;2961;47.702;9.410;2023-07-20T14:58:16;28.10;59.80
5870;DHT22;2961;47.702;9.410;2023-07-20T15:00:43;28.10;59.20
5870;DHT22;2961;47.702;9.410;2023-07-20T15:03:10;28.20;58.90
5870;DHT22;2961;47.702;9.410;2023-07-20T15:05:36;28.30;59.70
5870;DHT22;2961;47.702;9.410;2023-07-20T15:08:04;28.30;61.40
5870;DHT22;2961;47.702;9.410;2023-07-20T15:10:33;28.20;64.90
5870;DHT22;2961;47.702;9.410;2023-07-20T15:13:00;28.00;66.40
5870;DHT22;2961;47.702;9.410;2023-07-20T15:15:28;28.00;67.60
5870;DHT22;2961;47.702;9.410;2023-07-20T15:17:55;27.90;69.10
5870;DHT22;2961;47.702;9.410;2023-07-20T15:20:21;27.90;67.10
5870;DHT22;2961;47.702;9.410;2023-07-20T15:22:48;28.00;67.10
5870;DHT22;2961;47.702;9.410;2023-07-20T15:25:15;27.90;65.20
5870;DHT22;2961;47.702;9.410;2023-07-20T15:27:43;27.90;64.50
5870;DHT22;2961;47.702;9.410;2023-07-20T15:30:10;27.90;66.00
5870;DHT22;2961;47.702;9.410;2023-07-20T15:32:38;27.80;67.50
5870;DHT22;2961;47.702;9.410;2023-07-20T15:35:06;27.80;67.60
5870;DHT22;2961;47.702;9.410;2023-07-20T15:37:33;28.00;68.80
5870;DHT22;2961;47.702;9.410;2023-07-20T15:40:00;28.00;68.30
5870;DHT22;2961;47.702;9.410;2023-07-20T15:42:30;27.90;68.80
5870;DHT22;2961;47.702;9.410;2023-07-20T15:44:58;28.00;65.40
5870;DHT22;2961;47.702;9.410;2023-07-20T15:47:25;27.90;67.10
5870;DHT22;2961;47.702;9.410;2023-07-20T15:49:52;27.80;66.90
5870;DHT22;2961;47.702;9.410;2023-07-20T15:52:19;27.80;66.40
5870;DHT22;2961;47.702;9.410;2023-07-20T15:54:46;27.70;67.50
5870;DHT22;2961;47.702;9.410;2023-07-20T15:57:13;27.70;68.50
5870;DHT22;2961;47.702;9.410;2023-07-20T15:59:40;27.60;67.30
5870;DHT22;2961;47.702;9.410;2023-07-20T16:02:08;27.60;69.50
5870;DHT22;2961;47.702;9.410;2023-07-20T16:04:35;27.60;69.70
5870;DHT22;2961;47.702;9.410;2023-07-20T16:07:01;27.60;68.80